Time,TemperatureF,DewpointF,PressureIn,WindDirection,WindDirectionDegrees,WindSpeedMPH,WindSpeedGustMPH,Humidity,HourlyPrecipIn,Conditions,Clouds,dailyrainin,SoftwareType,DateUTC
2013-02-05 00:01:00,43.5,36.8,29.72,NE,45,0.0,0.0,77,0.00,,,0.00,pywws,2013-02-05 00:01:00,
2013-02-05 00:04:00,43.5,36.8,29.72,NE,45,0.0,0.0,77,0.00,,,0.00,pywws,2013-02-05 00:04:00,
2013-02-05 00:05:00,43.5,36.8,29.72,NE,45,0.0,0.0,77,0.00,,,0.00,pywws,2013-02-05 00:05:00,
2013-02-05 00:07:00,43.5,36.8,29.72,NE,45,0.0,0.0,77,0.00,,,0.00,pywws,2013-02-05 00:07:00,
2013-02-05 00:10:00,43.5,36.8,29.72,NE,45,0.0,0.0,77,0.00,,,0.00,pywws,2013-02-05 00:10:00,
2013-02-05 00:13:00,43.7,36.6,29.71,SW,225,0.0,0.0,76,0.00,,,0.00,pywws,2013-02-05 00:13:00,
2013-02-05 00:16:00,43.7,36.6,29.70,SSW,202,0.0,0.0,76,0.00,,,0.00,pywws,2013-02-05 00:16:00,
2013-02-05 00:19:00,43.7,36.6,29.71,WNW,292,0.0,0.0,76,0.00,,,0.00,pywws,2013-02-05 00:19:00,
2013-02-05 00:22:00,43.5,36.5,29.70,South,180,0.0,0.0,76,0.00,,,0.00,pywws,2013-02-05 00:22:00,
2013-02-05 00:34:00,43.5,36.5,29.71,SW,225,0.0,0.0,76,0.00,,,0.00,pywws,2013-02-05 00:34:00,
2013-02-05 00:39:00,43.5,36.5,29.70,East,90,0.0,0.0,76,0.00,,,0.00,pywws,2013-02-05 00:39:00,
2013-02-05 00:44:00,43.7,36.6,29.69,SE,135,0.0,0.0,76,0.00,,,0.00,pywws,2013-02-05 00:44:00,
2013-02-05 00:49:00,43.9,36.8,29.68,East,90,0.0,0.0,76,0.00,,,0.00,pywws,2013-02-05 00:49:00,
2013-02-05 00:54:00,43.9,36.8,29.67,NNE,22,0.0,0.0,76,0.00,,,0.00,pywws,2013-02-05 00:54:00,
2013-02-05 00:59:00,44.1,36.7,29.67,North,0,0.0,0.0,75,0.00,,,0.00,pywws,2013-02-05 00:59:00,
2013-02-05 01:05:00,44.1,36.7,29.66,NE,45,0.0,0.0,75,0.00,,,0.00,pywws,2013-02-05 01:05:00,
2013-02-05 01:10:00,44.1,36.7,29.67,NE,45,0.0,0.0,75,0.00,,,0.00,pywws,2013-02-05 01:10:00,
2013-02-05 01:15:00,44.6,35.8,29.67,West,270,0.0,0.0,71,0.00,,,0.00,pywws,2013-02-05 01:15:00,
2013-02-05 01:21:00,44.4,35.6,29.67,NW,315,0.0,0.0,71,0.00,,,0.00,pywws,2013-02-05 01:21:00,
2013-02-05 01:26:00,44.2,36.5,29.67,NW,315,0.0,0.0,74,0.00,,,0.00,pywws,2013-02-05 01:26:00,
2013-02-05 01:31:00,43.3,37.3,29.68,NW,315,0.0,0.0,79,0.01,,,0.01,pywws,2013-02-05 01:31:00,
2013-02-05 01:36:00,40.1,35.4,29.70,North,0,0.0,0.0,83,0.05,,,0.05,pywws,2013-02-05 01:36:00,
2013-02-05 01:42:00,37.4,34.5,29.69,NW,315,0.0,0.0,89,0.07,,,0.07,pywws,2013-02-05 01:42:00,
2013-02-05 01:47:00,36.7,34.6,29.67,NW,315,0.0,0.0,92,0.08,,,0.08,pywws,2013-02-05 01:47:00,
2013-02-05 01:52:00,36.7,34.9,29.67,SW,225,0.0,0.0,93,0.08,,,0.08,pywws,2013-02-05 01:52:00,
2013-02-05 01:58:00,36.9,35.3,29.67,NW,315,0.0,0.0,94,0.08,,,0.08,pywws,2013-02-05 01:58:00,
2013-02-05 02:05:00,37.0,35.5,29.67,NE,45,0.0,0.0,94,0.08,,,0.08,pywws,2013-02-05 02:05:00,
2013-02-05 02:10:00,37.9,36.6,29.67,West,270,0.0,0.0,95,0.08,,,0.08,pywws,2013-02-05 02:10:00,
2013-02-05 02:15:00,38.3,37.0,29.67,NW,315,0.0,0.0,95,0.08,,,0.08,pywws,2013-02-05 02:15:00,
2013-02-05 02:21:00,38.5,36.9,29.67,NW,315,0.0,0.0,94,0.08,,,0.08,pywws,2013-02-05 02:21:00,
2013-02-05 02:26:00,38.8,36.7,29.67,NW,315,0.0,0.0,92,0.08,,,0.08,pywws,2013-02-05 02:26:00,
2013-02-05 02:31:00,38.8,36.7,29.67,WSW,248,0.0,0.0,92,0.08,,,0.08,pywws,2013-02-05 02:31:00,
2013-02-05 02:36:00,38.8,36.7,29.66,South,180,0.0,0.0,92,0.04,,,0.08,pywws,2013-02-05 02:36:00,
2013-02-05 02:41:00,38.8,36.7,29.66,NNE,22,0.0,0.0,92,0.01,,,0.08,pywws,2013-02-05 02:41:00,
2013-02-05 02:47:00,38.7,36.3,29.66,NW,315,0.0,0.0,91,0.00,,,0.08,pywws,2013-02-05 02:47:00,
2013-02-05 02:52:00,38.7,36.3,29.66,North,0,0.0,0.0,91,0.00,,,0.08,pywws,2013-02-05 02:52:00,
2013-02-05 02:57:00,38.5,36.1,29.65,North,0,0.0,0.0,91,0.00,,,0.08,pywws,2013-02-05 02:57:00,
2013-02-05 03:05:00,38.3,35.9,29.64,North,0,0.0,0.0,91,0.00,,,0.08,pywws,2013-02-05 03:05:00,
2013-02-05 03:10:00,37.9,35.8,29.65,NW,315,0.0,0.0,92,0.00,,,0.08,pywws,2013-02-05 03:10:00,
2013-02-05 03:15:00,37.8,35.6,29.64,North,0,0.0,0.0,92,0.00,,,0.08,pywws,2013-02-05 03:15:00,
2013-02-05 03:21:00,37.8,35.9,29.64,South,180,0.0,0.0,93,0.00,,,0.08,pywws,2013-02-05 03:21:00,
2013-02-05 03:26:00,37.8,35.9,29.64,SW,225,0.0,0.0,93,0.00,,,0.08,pywws,2013-02-05 03:26:00,
2013-02-05 03:31:00,37.8,35.9,29.64,NE,45,0.0,0.0,93,0.00,,,0.08,pywws,2013-02-05 03:31:00,
2013-02-05 03:36:00,37.9,36.1,29.62,North,0,0.0,0.0,93,0.00,,,0.08,pywws,2013-02-05 03:36:00,
2013-02-05 03:41:00,38.1,36.0,29.62,South,180,0.0,0.0,92,0.00,,,0.08,pywws,2013-02-05 03:41:00,
2013-02-05 03:46:00,38.1,36.0,29.62,NNW,338,0.0,0.0,92,0.00,,,0.08,pywws,2013-02-05 03:46:00,
2013-02-05 03:51:00,38.1,36.0,29.62,NW,315,0.0,0.0,92,0.00,,,0.08,pywws,2013-02-05 03:51:00,
2013-02-05 03:57:00,38.1,35.5,29.62,NW,315,0.0,0.0,90,0.00,,,0.08,pywws,2013-02-05 03:57:00,
2013-02-05 04:05:00,38.1,35.2,29.62,NW,315,0.0,0.0,89,0.00,,,0.08,pywws,2013-02-05 04:05:00,
2013-02-05 04:10:00,37.9,35.0,29.62,SE,135,0.0,0.0,89,0.00,,,0.08,pywws,2013-02-05 04:10:00,
2013-02-05 04:16:00,37.9,35.0,29.62,North,0,0.0,0.0,89,0.00,,,0.08,pywws,2013-02-05 04:16:00,
2013-02-05 04:21:00,37.9,34.7,29.61,North,0,0.0,0.0,88,0.00,,,0.08,pywws,2013-02-05 04:21:00,
2013-02-05 04:26:00,38.1,34.6,29.62,SSW,202,0.0,0.0,87,0.00,,,0.08,pywws,2013-02-05 04:26:00,
2013-02-05 04:31:00,37.9,34.4,29.62,South,180,0.0,0.0,87,0.00,,,0.08,pywws,2013-02-05 04:31:00,
2013-02-05 04:36:00,37.9,33.8,29.62,South,180,0.0,0.0,85,0.00,,,0.08,pywws,2013-02-05 04:36:00,
2013-02-05 04:41:00,37.9,33.8,29.61,SW,225,0.0,0.0,85,0.00,,,0.08,pywws,2013-02-05 04:41:00,
2013-02-05 04:47:00,37.8,33.4,29.62,NE,45,0.0,0.0,84,0.00,,,0.08,pywws,2013-02-05 04:47:00,
2013-02-05 04:52:00,37.4,33.0,29.62,NW,315,0.0,0.0,84,0.00,,,0.08,pywws,2013-02-05 04:52:00,
2013-02-05 04:55:00,37.4,33.3,29.62,NNE,22,0.0,0.0,85,0.00,,,0.08,pywws,2013-02-05 04:55:00,
2013-02-05 04:57:00,37.2,33.1,29.62,East,90,0.0,0.0,85,0.00,,,0.08,pywws,2013-02-05 04:57:00,
2013-02-05 04:58:00,37.2,33.1,29.62,East,90,0.0,0.0,85,0.00,,,0.08,pywws,2013-02-05 04:58:00,
2013-02-05 05:01:00,37.4,33.3,29.62,NNE,22,0.0,0.0,85,0.00,,,0.08,pywws,2013-02-05 05:01:00,
2013-02-05 05:10:00,37.2,33.1,29.62,West,270,0.0,0.0,85,0.00,,,0.08,pywws,2013-02-05 05:10:00,
2013-02-05 05:15:00,36.9,32.5,29.61,East,90,0.0,0.0,84,0.00,,,0.08,pywws,2013-02-05 05:15:00,
2013-02-05 05:20:00,36.9,32.2,29.62,East,90,0.0,0.0,83,0.00,,,0.08,pywws,2013-02-05 05:20:00,
2013-02-05 05:26:00,36.9,31.9,29.62,SW,225,0.0,0.0,82,0.00,,,0.08,pywws,2013-02-05 05:26:00,
2013-02-05 05:31:00,36.9,31.3,29.61,South,180,0.0,0.0,80,0.00,,,0.08,pywws,2013-02-05 05:31:00,
2013-02-05 05:36:00,36.9,31.0,29.62,SE,135,0.0,0.0,79,0.00,,,0.08,pywws,2013-02-05 05:36:00,
2013-02-05 05:41:00,36.9,31.0,29.62,NE,45,0.0,0.0,79,0.00,,,0.08,pywws,2013-02-05 05:41:00,
2013-02-05 05:47:00,36.7,30.2,29.62,NW,315,0.0,0.0,77,0.00,,,0.08,pywws,2013-02-05 05:47:00,
2013-02-05 05:52:00,36.7,30.5,29.62,North,0,0.0,0.0,78,0.00,,,0.08,pywws,2013-02-05 05:52:00,
2013-02-05 05:57:00,36.7,30.2,29.61,East,90,0.0,0.0,77,0.00,,,0.08,pywws,2013-02-05 05:57:00,
2013-02-05 06:04:00,36.5,30.0,29.61,South,180,0.0,0.0,77,0.00,,,0.08,pywws,2013-02-05 06:04:00,
2013-02-05 06:05:00,36.5,30.0,29.61,South,180,0.0,0.0,77,0.00,,,0.08,pywws,2013-02-05 06:05:00,
2013-02-05 06:10:00,36.5,30.0,29.61,South,180,0.0,0.0,77,0.00,,,0.08,pywws,2013-02-05 06:10:00,
2013-02-05 06:16:00,36.5,30.0,29.60,South,180,0.0,0.0,77,0.00,,,0.08,pywws,2013-02-05 06:16:00,
2013-02-05 06:21:00,36.0,29.5,29.60,NW,315,0.0,0.0,77,0.00,,,0.08,pywws,2013-02-05 06:21:00,
2013-02-05 06:26:00,36.0,29.5,29.60,East,90,0.0,0.0,77,0.00,,,0.08,pywws,2013-02-05 06:26:00,
2013-02-05 06:31:00,36.1,29.6,29.60,South,180,0.0,0.0,77,0.00,,,0.08,pywws,2013-02-05 06:31:00,
2013-02-05 06:36:00,36.0,29.1,29.60,North,0,0.0,0.0,76,0.00,,,0.08,pywws,2013-02-05 06:36:00,
2013-02-05 06:41:00,36.0,29.5,29.61,NE,45,0.0,0.0,77,0.00,,,0.08,pywws,2013-02-05 06:41:00,
2013-02-05 06:47:00,35.8,29.3,29.60,East,90,0.0,0.0,77,0.00,,,0.08,pywws,2013-02-05 06:47:00,
2013-02-05 06:52:00,35.8,29.3,29.60,WNW,292,0.0,0.0,77,0.00,,,0.08,pywws,2013-02-05 06:52:00,
2013-02-05 06:57:00,35.8,29.3,29.60,South,180,0.0,0.0,77,0.00,,,0.08,pywws,2013-02-05 06:57:00,
2013-02-05 07:05:00,36.0,29.5,29.60,East,90,0.0,0.0,77,0.00,,,0.08,pywws,2013-02-05 07:05:00,
2013-02-05 07:10:00,35.8,29.3,29.60,West,270,0.0,0.0,77,0.00,,,0.08,pywws,2013-02-05 07:10:00,
2013-02-05 07:15:00,35.8,29.0,29.60,SE,135,0.0,0.0,76,0.00,,,0.08,pywws,2013-02-05 07:15:00,
2013-02-05 07:21:00,35.8,29.0,29.60,SW,225,0.0,0.0,76,0.00,,,0.08,pywws,2013-02-05 07:21:00,
2013-02-05 07:26:00,35.8,29.0,29.59,West,270,0.0,0.0,76,0.00,,,0.08,pywws,2013-02-05 07:26:00,
2013-02-05 07:31:00,35.8,28.6,29.60,NE,45,0.0,0.0,75,0.00,,,0.08,pywws,2013-02-05 07:31:00,
2013-02-05 07:36:00,36.0,28.8,29.60,North,0,0.0,0.0,75,0.00,,,0.08,pywws,2013-02-05 07:36:00,
2013-02-05 07:41:00,35.8,28.6,29.60,West,270,0.0,0.0,75,0.00,,,0.08,pywws,2013-02-05 07:41:00,
2013-02-05 07:47:00,35.8,28.6,29.60,NE,45,0.0,0.0,75,0.00,,,0.08,pywws,2013-02-05 07:47:00,
2013-02-05 07:52:00,36.0,29.1,29.59,NE,45,0.0,0.0,76,0.00,,,0.08,pywws,2013-02-05 07:52:00,
2013-02-05 07:57:00,36.0,28.8,29.59,NW,315,0.0,0.0,75,0.00,,,0.08,pywws,2013-02-05 07:57:00,
2013-02-05 08:05:00,36.0,28.8,29.59,SE,135,0.0,0.0,75,0.00,,,0.08,pywws,2013-02-05 08:05:00,
2013-02-05 08:10:00,36.3,29.2,29.60,NE,45,0.0,0.0,75,0.00,,,0.08,pywws,2013-02-05 08:10:00,
2013-02-05 08:15:00,36.5,29.3,29.60,SE,135,0.0,0.0,75,0.00,,,0.08,pywws,2013-02-05 08:15:00,
2013-02-05 08:21:00,36.5,29.3,29.59,South,180,0.0,0.0,75,0.00,,,0.08,pywws,2013-02-05 08:21:00,
2013-02-05 08:26:00,36.5,29.3,29.59,North,0,0.0,0.0,75,0.00,,,0.08,pywws,2013-02-05 08:26:00,
2013-02-05 08:31:00,36.7,29.5,29.59,South,180,0.0,0.0,75,0.00,,,0.08,pywws,2013-02-05 08:31:00,
2013-02-05 08:37:00,36.7,29.8,29.59,SE,135,0.0,0.0,76,0.00,,,0.08,pywws,2013-02-05 08:37:00,
2013-02-05 08:43:00,36.7,29.8,29.59,SSW,202,0.0,0.0,76,0.00,,,0.08,pywws,2013-02-05 08:43:00,
2013-02-05 08:48:00,36.9,30.3,29.59,North,0,0.0,0.0,77,0.00,,,0.08,pywws,2013-02-05 08:48:00,
2013-02-05 08:55:00,37.0,30.5,29.58,NNE,22,0.0,0.0,77,0.00,,,0.08,pywws,2013-02-05 08:55:00,
2013-02-05 09:00:00,37.2,30.4,29.58,NNW,338,0.0,0.0,76,0.00,,,0.08,pywws,2013-02-05 09:00:00,
2013-02-05 09:05:00,37.2,30.4,29.57,NNW,338,0.0,0.0,76,0.00,,,0.08,pywws,2013-02-05 09:05:00,
2013-02-05 09:10:00,37.6,30.7,29.57,East,90,0.0,0.0,76,0.00,,,0.08,pywws,2013-02-05 09:10:00,
2013-02-05 09:15:00,37.6,31.0,29.57,SW,225,0.0,0.0,77,0.00,,,0.08,pywws,2013-02-05 09:15:00,
2013-02-05 09:20:00,37.8,31.2,29.57,South,180,0.0,0.0,77,0.00,,,0.08,pywws,2013-02-05 09:20:00,
2013-02-05 09:26:00,37.8,31.2,29.57,South,180,0.0,0.0,77,0.00,,,0.08,pywws,2013-02-05 09:26:00,
2013-02-05 09:31:00,38.1,31.6,29.57,NE,45,0.0,0.0,77,0.00,,,0.08,pywws,2013-02-05 09:31:00,
2013-02-05 09:36:00,38.8,31.6,29.57,NE,45,0.0,0.0,75,0.00,,,0.08,pywws,2013-02-05 09:36:00,
2013-02-05 09:41:00,39.9,32.3,29.57,NW,315,0.0,0.0,74,0.00,,,0.08,pywws,2013-02-05 09:41:00,
2013-02-05 09:46:00,39.6,31.6,29.57,NNW,338,0.0,0.0,73,0.00,,,0.08,pywws,2013-02-05 09:46:00,
2013-02-05 09:49:00,39.7,32.1,29.56,SW,225,0.0,0.0,74,0.00,,,0.08,pywws,2013-02-05 09:49:00,
2013-02-05 09:51:00,39.6,31.6,29.57,NNW,338,0.0,0.0,73,0.00,,,0.08,pywws,2013-02-05 09:51:00,
2013-02-05 09:52:00,39.9,32.3,29.56,SW,225,0.0,0.0,74,0.00,,,0.08,pywws,2013-02-05 09:52:00,
2013-02-05 09:55:00,39.9,32.3,29.56,SE,135,0.0,0.0,74,0.00,,,0.08,pywws,2013-02-05 09:55:00,
2013-02-05 09:56:00,39.7,32.1,29.56,SW,225,0.0,0.0,74,0.00,,,0.08,pywws,2013-02-05 09:56:00,
2013-02-05 09:58:00,40.1,32.2,29.56,East,90,0.0,0.0,73,0.00,,,0.08,pywws,2013-02-05 09:58:00,
2013-02-05 10:01:00,40.3,32.3,29.57,NW,315,0.0,0.0,73,0.00,,,0.08,pywws,2013-02-05 10:01:00,
2013-02-05 10:04:00,40.3,32.3,29.57,NW,315,0.0,0.0,73,0.00,,,0.08,pywws,2013-02-05 10:04:00,
2013-02-05 10:07:00,40.3,32.3,29.57,NW,315,0.0,0.0,73,0.00,,,0.08,pywws,2013-02-05 10:07:00,
2013-02-05 10:10:00,40.3,32.3,29.57,NW,315,0.0,0.0,73,0.00,,,0.08,pywws,2013-02-05 10:10:00,
2013-02-05 10:13:00,40.3,32.3,29.56,NW,315,0.0,0.0,73,0.00,,,0.08,pywws,2013-02-05 10:13:00,
2013-02-05 10:16:00,40.5,32.2,29.56,North,0,0.0,0.0,72,0.00,,,0.08,pywws,2013-02-05 10:16:00,
2013-02-05 10:26:00,40.8,32.5,29.56,SW,225,0.0,0.0,72,0.00,,,0.08,pywws,2013-02-05 10:26:00,
2013-02-05 10:31:00,41.4,31.6,29.57,West,270,0.0,0.0,68,0.00,,,0.08,pywws,2013-02-05 10:31:00,
2013-02-05 10:37:00,40.8,31.1,29.56,SW,225,0.0,0.0,68,0.00,,,0.08,pywws,2013-02-05 10:37:00,
2013-02-05 10:43:00,40.5,31.1,29.56,NW,315,0.0,0.0,69,0.00,,,0.08,pywws,2013-02-05 10:43:00,
2013-02-05 10:48:00,40.8,31.8,29.56,SW,225,0.0,0.0,70,0.00,,,0.08,pywws,2013-02-05 10:48:00,
2013-02-05 10:53:00,41.0,31.6,29.56,North,0,0.0,0.0,69,0.00,,,0.08,pywws,2013-02-05 10:53:00,
2013-02-05 10:58:00,41.2,31.1,29.56,WNW,292,0.0,0.0,67,0.00,,,0.08,pywws,2013-02-05 10:58:00,
2013-02-05 11:05:00,41.0,30.5,29.55,SW,225,0.0,0.0,66,0.00,,,0.08,pywws,2013-02-05 11:05:00,
2013-02-05 11:10:00,41.4,29.3,29.55,NW,315,0.0,0.0,62,0.00,,,0.08,pywws,2013-02-05 11:10:00,
2013-02-05 11:15:00,41.5,29.5,29.54,SSW,202,0.0,0.0,62,0.00,,,0.08,pywws,2013-02-05 11:15:00,
2013-02-05 11:20:00,41.5,29.5,29.54,SSW,202,0.0,0.0,62,0.00,,,0.08,pywws,2013-02-05 11:20:00,
2013-02-05 11:25:00,42.6,30.5,29.53,North,0,0.0,0.0,62,0.00,,,0.08,pywws,2013-02-05 11:25:00,
2013-02-05 11:31:00,42.6,29.7,29.53,NNE,22,0.0,0.0,60,0.00,,,0.08,pywws,2013-02-05 11:31:00,
2013-02-05 11:36:00,42.8,29.5,29.53,West,270,0.0,0.0,59,0.00,,,0.08,pywws,2013-02-05 11:36:00,
2013-02-05 11:41:00,43.2,29.8,29.53,West,270,0.0,0.0,59,0.00,,,0.08,pywws,2013-02-05 11:41:00,
2013-02-05 11:46:00,43.3,29.1,29.53,West,270,0.0,0.0,57,0.01,,,0.09,pywws,2013-02-05 11:46:00,
2013-02-05 11:51:00,43.3,29.6,29.53,NW,315,0.0,0.0,58,0.01,,,0.09,pywws,2013-02-05 11:51:00,
2013-02-05 11:56:00,42.8,28.2,29.53,SW,225,0.0,0.0,56,0.01,,,0.09,pywws,2013-02-05 11:56:00,
2013-02-05 12:05:00,43.2,27.7,29.53,NW,315,0.0,0.0,54,0.01,,,0.09,pywws,2013-02-05 12:05:00,
2013-02-05 12:10:00,43.2,27.7,29.53,NW,315,0.0,0.0,54,0.01,,,0.09,pywws,2013-02-05 12:10:00,
2013-02-05 12:19:00,42.3,26.8,29.53,West,270,0.0,0.0,54,0.01,,,0.09,pywws,2013-02-05 12:19:00,
2013-02-05 12:24:00,42.3,26.8,29.53,West,270,0.0,0.0,54,0.01,,,0.09,pywws,2013-02-05 12:24:00,
2013-02-05 12:29:00,41.9,28.2,29.52,NW,315,0.0,0.0,58,0.01,,,0.09,pywws,2013-02-05 12:29:00,
2013-02-05 12:34:00,41.9,27.8,29.53,SW,225,0.0,0.0,57,0.01,,,0.09,pywws,2013-02-05 12:34:00,
2013-02-05 12:39:00,42.4,27.9,29.52,West,270,0.0,0.0,56,0.01,,,0.09,pywws,2013-02-05 12:39:00,
2013-02-05 12:45:00,43.5,28.0,29.52,NW,315,0.0,0.0,54,0.00,,,0.09,pywws,2013-02-05 12:45:00,
2013-02-05 12:50:00,43.7,27.2,29.52,NW,315,0.0,0.0,52,0.00,,,0.09,pywws,2013-02-05 12:50:00,
2013-02-05 12:55:00,43.7,27.7,29.51,North,0,0.0,0.0,53,0.00,,,0.09,pywws,2013-02-05 12:55:00,
2013-02-05 13:00:00,44.1,27.1,29.51,South,180,0.0,0.0,51,0.00,,,0.09,pywws,2013-02-05 13:00:00,
2013-02-05 13:05:00,44.1,27.6,29.51,West,270,0.0,0.0,52,0.00,,,0.09,pywws,2013-02-05 13:05:00,
2013-02-05 13:10:00,43.5,26.6,29.52,West,270,0.0,0.0,51,0.00,,,0.09,pywws,2013-02-05 13:10:00,
2013-02-05 13:15:00,43.2,27.2,29.51,North,0,0.0,0.0,53,0.00,,,0.09,pywws,2013-02-05 13:15:00,
2013-02-05 13:20:00,43.5,28.0,29.51,NW,315,0.0,0.0,54,0.00,,,0.09,pywws,2013-02-05 13:20:00,
2013-02-05 13:25:00,43.7,25.8,29.51,NW,315,0.0,0.0,49,0.00,,,0.09,pywws,2013-02-05 13:25:00,
2013-02-05 13:31:00,44.1,26.1,29.51,WSW,248,0.0,0.0,49,0.00,,,0.09,pywws,2013-02-05 13:31:00,
2013-02-05 13:36:00,44.1,26.1,29.50,East,90,0.0,0.0,49,0.00,,,0.09,pywws,2013-02-05 13:36:00,
2013-02-05 13:41:00,44.4,26.0,29.50,North,0,0.0,0.0,48,0.00,,,0.09,pywws,2013-02-05 13:41:00,
2013-02-05 13:46:00,43.9,26.5,29.50,SE,135,0.0,0.0,50,0.00,,,0.09,pywws,2013-02-05 13:46:00,
2013-02-05 13:51:00,43.3,26.4,29.49,NW,315,0.0,0.0,51,0.00,,,0.09,pywws,2013-02-05 13:51:00,
2013-02-05 13:56:00,43.5,25.6,29.49,WNW,292,0.0,0.0,49,0.00,,,0.09,pywws,2013-02-05 13:56:00,
2013-02-05 14:01:00,43.5,25.6,29.49,NW,315,0.0,0.0,49,0.00,,,0.09,pywws,2013-02-05 14:01:00,
2013-02-05 14:07:00,43.5,25.6,29.49,NW,315,0.0,0.0,49,0.00,,,0.09,pywws,2013-02-05 14:07:00,
2013-02-05 14:12:00,43.2,25.8,29.49,West,270,0.0,0.0,50,0.00,,,0.09,pywws,2013-02-05 14:12:00,
2013-02-05 14:17:00,43.2,25.8,29.49,North,0,0.0,0.0,50,0.00,,,0.09,pywws,2013-02-05 14:17:00,
2013-02-05 14:22:00,43.5,25.6,29.48,West,270,0.0,0.0,49,0.00,,,0.09,pywws,2013-02-05 14:22:00,
2013-02-05 14:27:00,43.9,26.0,29.48,West,270,0.0,0.0,49,0.00,,,0.09,pywws,2013-02-05 14:27:00,
2013-02-05 14:32:00,43.7,25.8,29.48,NW,315,0.0,0.0,49,0.00,,,0.09,pywws,2013-02-05 14:32:00,
2013-02-05 14:38:00,43.3,25.5,29.48,North,0,0.0,0.0,49,0.00,,,0.09,pywws,2013-02-05 14:38:00,
2013-02-05 14:43:00,43.3,26.0,29.48,NW,315,0.0,0.0,50,0.00,,,0.09,pywws,2013-02-05 14:43:00,
2013-02-05 14:48:00,44.1,26.6,29.48,NW,315,0.0,0.0,50,0.00,,,0.09,pywws,2013-02-05 14:48:00,
2013-02-05 14:53:00,44.8,26.3,29.48,North,0,0.0,0.0,48,0.00,,,0.09,pywws,2013-02-05 14:53:00,
2013-02-05 14:59:00,44.4,26.5,29.47,NNE,22,0.0,0.0,49,0.00,,,0.09,pywws,2013-02-05 14:59:00,
2013-02-05 15:05:00,44.2,26.3,29.47,West,270,0.0,0.0,49,0.00,,,0.09,pywws,2013-02-05 15:05:00,
2013-02-05 15:11:00,43.2,26.3,29.47,East,90,0.0,0.0,51,0.00,,,0.09,pywws,2013-02-05 15:11:00,
2013-02-05 15:16:00,43.0,26.6,29.47,SW,225,0.0,0.0,52,0.00,,,0.09,pywws,2013-02-05 15:16:00,
2013-02-05 15:21:00,42.8,25.9,29.46,NW,315,0.0,0.0,51,0.00,,,0.09,pywws,2013-02-05 15:21:00,
2013-02-05 15:27:00,42.8,26.4,29.46,NW,315,0.0,0.0,52,0.00,,,0.09,pywws,2013-02-05 15:27:00,
2013-02-05 15:32:00,43.0,26.6,29.45,South,180,0.0,0.0,52,0.00,,,0.09,pywws,2013-02-05 15:32:00,
2013-02-05 15:37:00,43.0,26.6,29.45,North,0,0.0,0.0,52,0.00,,,0.09,pywws,2013-02-05 15:37:00,
2013-02-05 15:43:00,42.8,26.4,29.46,West,270,0.0,0.0,52,0.00,,,0.09,pywws,2013-02-05 15:43:00,
2013-02-05 15:48:00,42.6,26.7,29.46,North,0,0.0,0.0,53,0.00,,,0.09,pywws,2013-02-05 15:48:00,
2013-02-05 15:53:00,42.3,26.4,29.44,South,180,0.0,0.0,53,0.00,,,0.09,pywws,2013-02-05 15:53:00,
2013-02-05 15:58:00,42.1,26.6,29.44,North,0,0.0,0.0,54,0.00,,,0.09,pywws,2013-02-05 15:58:00,
2013-02-05 16:05:00,42.1,27.1,29.44,North,0,0.0,0.0,55,0.00,,,0.09,pywws,2013-02-05 16:05:00,
2013-02-05 16:10:00,41.7,27.2,29.44,NE,45,0.0,0.0,56,0.00,,,0.09,pywws,2013-02-05 16:10:00,
2013-02-05 16:15:00,41.7,27.2,29.43,East,90,0.0,0.0,56,0.00,,,0.09,pywws,2013-02-05 16:15:00,
2013-02-05 16:20:00,41.7,27.2,29.43,East,90,0.0,0.0,56,0.00,,,0.09,pywws,2013-02-05 16:20:00,
2013-02-05 16:26:00,41.5,27.5,29.43,North,0,0.0,0.0,57,0.00,,,0.09,pywws,2013-02-05 16:26:00,
2013-02-05 16:31:00,41.4,27.3,29.43,SE,135,0.0,0.0,57,0.00,,,0.09,pywws,2013-02-05 16:31:00,
2013-02-05 16:36:00,41.5,27.5,29.43,South,180,0.0,0.0,57,0.00,,,0.09,pywws,2013-02-05 16:36:00,
2013-02-05 16:41:00,41.5,27.9,29.43,North,0,0.0,0.0,58,0.00,,,0.09,pywws,2013-02-05 16:41:00,
2013-02-05 16:46:00,41.5,27.5,29.44,North,0,0.0,0.0,57,0.00,,,0.09,pywws,2013-02-05 16:46:00,
2013-02-05 16:51:00,41.5,27.9,29.43,South,180,0.0,0.0,58,0.00,,,0.09,pywws,2013-02-05 16:51:00,
2013-02-05 16:56:00,41.5,27.9,29.43,NE,45,0.0,0.0,58,0.00,,,0.09,pywws,2013-02-05 16:56:00,
2013-02-05 17:05:00,41.5,27.9,29.43,North,0,0.0,0.0,58,0.00,,,0.09,pywws,2013-02-05 17:05:00,
2013-02-05 17:10:00,41.5,27.9,29.43,North,0,0.0,0.0,58,0.00,,,0.09,pywws,2013-02-05 17:10:00,
2013-02-05 17:15:00,41.2,28.4,29.41,SSE,158,0.0,0.0,60,0.00,,,0.09,pywws,2013-02-05 17:15:00,
2013-02-05 17:20:00,41.2,28.8,29.41,SW,225,0.0,0.0,61,0.00,,,0.09,pywws,2013-02-05 17:20:00,
2013-02-05 17:26:00,41.2,28.8,29.41,East,90,0.0,0.0,61,0.00,,,0.09,pywws,2013-02-05 17:26:00,
2013-02-05 17:31:00,41.2,28.8,29.41,NNE,22,0.0,0.0,61,0.00,,,0.09,pywws,2013-02-05 17:31:00,
2013-02-05 17:36:00,41.2,28.8,29.41,NE,45,0.0,0.0,61,0.00,,,0.09,pywws,2013-02-05 17:36:00,
2013-02-05 17:41:00,41.2,29.2,29.41,NW,315,0.0,0.0,62,0.00,,,0.09,pywws,2013-02-05 17:41:00,
2013-02-05 17:43:00,41.0,29.0,29.41,WNW,292,0.0,0.0,62,0.00,,,0.09,pywws,2013-02-05 17:43:00,
2013-02-05 17:46:00,41.0,29.0,29.41,WNW,292,0.0,0.0,62,0.00,,,0.09,pywws,2013-02-05 17:46:00,
2013-02-05 17:51:00,41.0,29.0,29.41,WNW,292,0.0,0.0,62,0.00,,,0.09,pywws,2013-02-05 17:51:00,
2013-02-05 17:55:00,41.2,29.9,29.40,South,180,0.0,0.0,64,0.00,,,0.09,pywws,2013-02-05 17:55:00,
2013-02-05 17:56:00,41.2,29.6,29.41,North,0,0.0,0.0,63,0.00,,,0.09,pywws,2013-02-05 17:56:00,
2013-02-05 18:01:00,41.2,29.9,29.40,South,180,0.0,0.0,64,0.00,,,0.09,pywws,2013-02-05 18:01:00,
2013-02-05 18:07:00,41.2,29.9,29.40,North,0,0.0,0.0,64,0.00,,,0.09,pywws,2013-02-05 18:07:00,
2013-02-05 18:12:00,41.4,31.2,29.39,South,180,0.0,0.0,67,0.00,,,0.09,pywws,2013-02-05 18:12:00,
2013-02-05 18:17:00,41.4,31.6,29.38,NW,315,0.0,0.0,68,0.00,,,0.09,pywws,2013-02-05 18:17:00,
2013-02-05 18:22:00,41.4,32.3,29.38,South,180,0.0,0.0,70,0.00,,,0.09,pywws,2013-02-05 18:22:00,
2013-02-05 18:27:00,41.2,32.9,29.38,North,0,0.0,0.0,72,0.00,,,0.09,pywws,2013-02-05 18:27:00,
2013-02-05 18:32:00,41.0,33.7,29.38,NNE,22,0.0,0.0,75,0.00,,,0.09,pywws,2013-02-05 18:32:00,
2013-02-05 18:37:00,40.8,34.5,29.38,SE,135,0.0,0.0,78,0.00,,,0.09,pywws,2013-02-05 18:37:00,
2013-02-05 18:43:00,40.6,34.6,29.38,West,270,0.0,0.0,79,0.00,,,0.09,pywws,2013-02-05 18:43:00,
2013-02-05 18:48:00,40.3,34.6,29.36,East,90,0.0,0.0,80,0.00,,,0.09,pywws,2013-02-05 18:48:00,
2013-02-05 18:53:00,40.5,35.1,29.37,North,0,0.0,0.0,81,0.00,,,0.09,pywws,2013-02-05 18:53:00,
2013-02-05 18:58:00,40.6,35.3,29.37,North,0,0.0,0.0,81,0.00,,,0.09,pywws,2013-02-05 18:58:00,
2013-02-05 19:05:00,40.6,35.3,29.37,NE,45,0.0,0.0,81,0.00,,,0.09,pywws,2013-02-05 19:05:00,
2013-02-05 19:10:00,41.0,35.3,29.36,SE,135,0.0,0.0,80,0.00,,,0.09,pywws,2013-02-05 19:10:00,
2013-02-05 19:15:00,41.2,35.5,29.36,NE,45,0.0,0.0,80,0.00,,,0.09,pywws,2013-02-05 19:15:00,
2013-02-05 19:20:00,41.2,35.2,29.36,SE,135,0.0,0.0,79,0.00,,,0.09,pywws,2013-02-05 19:20:00,
2013-02-05 19:25:00,41.2,35.2,29.36,East,90,0.0,0.0,79,0.00,,,0.09,pywws,2013-02-05 19:25:00,
2013-02-05 19:31:00,41.4,35.3,29.36,North,0,0.0,0.0,79,0.00,,,0.09,pywws,2013-02-05 19:31:00,
2013-02-05 19:36:00,41.4,35.3,29.36,ESE,112,0.0,0.0,79,0.00,,,0.09,pywws,2013-02-05 19:36:00,
2013-02-05 19:41:00,41.4,35.3,29.36,SE,135,0.0,0.0,79,0.00,,,0.09,pywws,2013-02-05 19:41:00,
2013-02-05 19:47:00,41.4,35.3,29.36,East,90,0.0,0.0,79,0.00,,,0.09,pywws,2013-02-05 19:47:00,
2013-02-05 19:52:00,41.4,35.7,29.35,South,180,0.0,0.0,80,0.00,,,0.09,pywws,2013-02-05 19:52:00,
2013-02-05 19:57:00,41.2,35.5,29.35,NNE,22,0.0,0.0,80,0.00,,,0.09,pywws,2013-02-05 19:57:00,
2013-02-05 20:05:00,41.0,35.6,29.35,NE,45,0.0,0.0,81,0.00,,,0.09,pywws,2013-02-05 20:05:00,
2013-02-05 20:11:00,41.2,35.8,29.35,NE,45,0.0,0.0,81,0.00,,,0.09,pywws,2013-02-05 20:11:00,
2013-02-05 20:16:00,41.0,35.9,29.35,SE,135,0.0,0.0,82,0.00,,,0.09,pywws,2013-02-05 20:16:00,
2013-02-05 20:21:00,41.4,36.3,29.35,East,90,0.0,0.0,82,0.00,,,0.09,pywws,2013-02-05 20:21:00,
2013-02-05 20:26:00,41.4,36.3,29.35,North,0,0.0,0.0,82,0.00,,,0.09,pywws,2013-02-05 20:26:00,
2013-02-05 20:31:00,41.5,36.5,29.34,South,180,0.0,0.0,82,0.00,,,0.09,pywws,2013-02-05 20:31:00,
2013-02-05 20:36:00,41.5,36.5,29.34,South,180,0.0,0.0,82,0.00,,,0.09,pywws,2013-02-05 20:36:00,
2013-02-05 20:43:00,41.5,36.5,29.35,West,270,0.0,0.0,82,0.00,,,0.09,pywws,2013-02-05 20:43:00,
2013-02-05 20:48:00,41.7,36.6,29.34,NNE,22,0.0,0.0,82,0.00,,,0.09,pywws,2013-02-05 20:48:00,
2013-02-05 20:53:00,41.7,36.9,29.34,SE,135,0.0,0.0,83,0.00,,,0.09,pywws,2013-02-05 20:53:00,
2013-02-05 20:58:00,41.9,37.1,29.34,NE,45,0.0,0.0,83,0.00,,,0.09,pywws,2013-02-05 20:58:00,
2013-02-05 21:05:00,41.9,37.1,29.34,West,270,0.0,0.0,83,0.00,,,0.09,pywws,2013-02-05 21:05:00,
2013-02-05 21:10:00,41.9,37.1,29.34,West,270,0.0,0.0,83,0.00,,,0.09,pywws,2013-02-05 21:10:00,
2013-02-05 21:15:00,42.1,37.3,29.34,NW,315,0.0,0.0,83,0.00,,,0.09,pywws,2013-02-05 21:15:00,
2013-02-05 21:20:00,42.3,37.5,29.34,West,270,0.0,0.0,83,0.00,,,0.09,pywws,2013-02-05 21:20:00,
2013-02-05 21:26:00,42.4,37.3,29.34,North,0,0.0,0.0,82,0.00,,,0.09,pywws,2013-02-05 21:26:00,
2013-02-05 21:31:00,42.3,37.2,29.34,NW,315,0.0,0.0,82,0.00,,,0.09,pywws,2013-02-05 21:31:00,
2013-02-05 21:36:00,42.8,37.4,29.34,NW,315,0.0,0.0,81,0.00,,,0.09,pywws,2013-02-05 21:36:00,
2013-02-05 21:41:00,42.8,37.1,29.34,North,0,0.0,0.0,80,0.00,,,0.09,pywws,2013-02-05 21:41:00,
2013-02-05 21:46:00,43.0,37.2,29.33,South,180,0.0,0.0,80,0.00,,,0.09,pywws,2013-02-05 21:46:00,
2013-02-05 21:51:00,43.2,37.1,29.33,NNW,338,0.0,0.0,79,0.00,,,0.09,pywws,2013-02-05 21:51:00,
2013-02-05 21:56:00,43.2,37.1,29.33,SW,225,0.0,0.0,79,0.00,,,0.09,pywws,2013-02-05 21:56:00,
2013-02-05 22:01:00,43.2,37.1,29.33,North,0,0.0,0.0,79,0.00,,,0.09,pywws,2013-02-05 22:01:00,
2013-02-05 22:06:00,43.2,37.1,29.34,SW,225,0.0,0.0,79,0.00,,,0.09,pywws,2013-02-05 22:06:00,
2013-02-05 22:11:00,43.2,37.1,29.34,SW,225,0.0,0.0,79,0.00,,,0.09,pywws,2013-02-05 22:11:00,
2013-02-05 22:16:00,43.5,37.1,29.34,NW,315,0.0,0.0,78,0.00,,,0.09,pywws,2013-02-05 22:16:00,
2013-02-05 22:21:00,43.3,36.9,29.33,NW,315,0.0,0.0,78,0.00,,,0.09,pywws,2013-02-05 22:21:00,
2013-02-05 22:27:00,43.7,37.3,29.34,SE,135,0.0,0.0,78,0.00,,,0.09,pywws,2013-02-05 22:27:00,
2013-02-05 22:32:00,43.5,37.4,29.34,NW,315,0.0,0.0,79,0.00,,,0.09,pywws,2013-02-05 22:32:00,
2013-02-05 22:37:00,43.5,37.4,29.34,NW,315,0.0,0.0,79,0.00,,,0.09,pywws,2013-02-05 22:37:00,
2013-02-05 22:42:00,43.5,37.4,29.34,NE,45,0.0,0.0,79,0.00,,,0.09,pywws,2013-02-05 22:42:00,
2013-02-05 22:47:00,43.5,37.4,29.34,North,0,0.0,0.0,79,0.00,,,0.09,pywws,2013-02-05 22:47:00,
2013-02-05 22:52:00,43.5,37.4,29.34,NW,315,0.0,0.0,79,0.00,,,0.09,pywws,2013-02-05 22:52:00,
2013-02-05 22:57:00,43.5,37.4,29.34,WSW,248,0.0,0.0,79,0.00,,,0.09,pywws,2013-02-05 22:57:00,
2013-02-05 23:01:00,43.5,37.4,29.34,West,270,0.0,0.0,79,0.00,,,0.09,pywws,2013-02-05 23:01:00,
2013-02-05 23:04:00,43.5,37.4,29.34,West,270,0.0,0.0,79,0.00,,,0.09,pywws,2013-02-05 23:04:00,
2013-02-05 23:05:00,43.5,37.4,29.34,West,270,0.0,0.0,79,0.00,,,0.09,pywws,2013-02-05 23:05:00,
2013-02-05 23:10:00,43.5,37.4,29.34,West,270,0.0,0.0,79,0.00,,,0.09,pywws,2013-02-05 23:10:00,
2013-02-05 23:15:00,43.5,37.4,29.34,NNW,338,0.0,0.0,79,0.00,,,0.09,pywws,2013-02-05 23:15:00,
2013-02-05 23:20:00,43.3,37.9,29.35,WNW,292,0.0,0.0,81,0.00,,,0.09,pywws,2013-02-05 23:20:00,
2013-02-05 23:25:00,43.2,38.0,29.35,SW,225,0.0,0.0,82,0.00,,,0.09,pywws,2013-02-05 23:25:00,
2013-02-05 23:31:00,43.2,38.4,29.35,SSW,202,0.0,0.0,83,0.00,,,0.09,pywws,2013-02-05 23:31:00,
2013-02-05 23:36:00,43.0,38.2,29.35,West,270,0.0,0.0,83,0.00,,,0.09,pywws,2013-02-05 23:36:00,
2013-02-05 23:41:00,42.6,38.7,29.35,NW,315,0.0,0.0,86,0.01,,,0.11,pywws,2013-02-05 23:41:00,
2013-02-05 23:47:00,42.4,38.8,29.35,NW,315,0.0,0.0,87,0.01,,,0.11,pywws,2013-02-05 23:47:00,
2013-02-05 23:52:00,42.3,38.7,29.35,North,0,0.0,0.0,87,0.01,,,0.11,pywws,2013-02-05 23:52:00,
2013-02-05 23:55:00,42.1,38.5,29.36,SSW,202,0.0,0.0,87,0.01,,,0.11,pywws,2013-02-05 23:55:00,
2013-02-05 23:57:00,42.1,38.8,29.36,NW,315,0.0,0.0,88,0.01,,,0.11,pywws,2013-02-05 23:57:00,
2013-02-05 23:58:00,42.1,38.8,29.36,NW,315,0.0,0.0,88,0.01,,,0.11,pywws,2013-02-05 23:58:00,